sensor_id;sensor_type;location;lat;lon;timestamp;temperature;humidity
52643;DHT22;38531;53.296;6.614;2024-01-30T00:01:41;4.70;99.90
52643;DHT22;38531;53.296;6.614;2024-01-30T00:04:07;3.60;99.90
52643;DHT22;38531;53.296;6.614;2024-01-30T00:06:32;3.90;99.90
52643;DHT22;38531;53.296;6.614;2024-01-30T00:08:58;4.70;99.90
52643;DHT22;38531;53.296;6.614;2024-01-30T00:11:24;4.30;99.90
52643;DHT22;38531;53.296;6.614;2024-01-30T00:13:51;5.10;99.90
52643;DHT22;38531;53.296;6.614;2024-01-30T00:16:24;4.70;99.90
52643;DHT22;38531;53.296;6.614;2024-01-30T00:18:53;2.70;99.90
52643;DHT22;38531;53.296;6.614;2024-01-30T00:21:20;4.50;99.90
52643;DHT22;38531;53.296;6.614;2024-01-30T00:23:46;4.50;99.90
52643;DHT22;38531;53.296;6.614;2024-01-30T00:26:12;4.40;99.90
52643;DHT22;38531;53.296;6.614;2024-01-30T00:28:38;3.80;99.90
52643;DHT22;38531;53.296;6.614;2024-01-30T00:31:04;4.20;99.90
52643;DHT22;38531;53.296;6.614;2024-01-30T00:33:30;4.10;99.90
52643;DHT22;38531;53.296;6.614;2024-01-30T00:35:56;3.50;99.90
52643;DHT22;38531;53.296;6.614;2024-01-30T00:38:22;4.40;99.90
52643;DHT22;38531;53.296;6.614;2024-01-30T00:40:48;4.60;99.90
52643;DHT22;38531;53.296;6.614;2024-01-30T00:43:14;4.30;99.90
52643;DHT22;38531;53.296;6.614;2024-01-30T00:45:39;3.00;99.90
52643;DHT22;38531;53.296;6.614;2024-01-30T00:48:05;3.40;99.90
52643;DHT22;38531;53.296;6.614;2024-01-30T00:50:31;3.20;99.90
52643;DHT22;38531;53.296;6.614;2024-01-30T00:52:57;4.70;99.90
52643;DHT22;38531;53.296;6.614;2024-01-30T00:55:22;3.10;99.90
52643;DHT22;38531;53.296;6.614;2024-01-30T00:57:48;4.60;99.90
52643;DHT22;38531;53.296;6.614;2024-01-30T01:00:14;4.20;99.90
52643;DHT22;38531;53.296;6.614;2024-01-30T01:02:42;3.20;99.90
52643;DHT22;38531;53.296;6.614;2024-01-30T01:05:08;3.10;99.90
52643;DHT22;38531;53.296;6.614;2024-01-30T01:07:34;2.70;99.90
52643;DHT22;38531;53.296;6.614;2024-01-30T01:10:00;3.10;99.90
52643;DHT22;38531;53.296;6.614;2024-01-30T01:12:26;3.00;99.90
52643;DHT22;38531;53.296;6.614;2024-01-30T01:14:52;3.60;99.90
52643;DHT22;38531;53.296;6.614;2024-01-30T01:17:17;3.60;99.90
52643;DHT22;38531;53.296;6.614;2024-01-30T01:19:44;3.00;99.90
52643;DHT22;38531;53.296;6.614;2024-01-30T01:22:10;4.50;99.90
52643;DHT22;38531;53.296;6.614;2024-01-30T01:24:36;3.60;99.90
52643;DHT22;38531;53.296;6.614;2024-01-30T01:27:02;3.00;99.90
52643;DHT22;38531;53.296;6.614;2024-01-30T01:29:28;3.10;99.90
52643;DHT22;38531;53.296;6.614;2024-01-30T01:31:58;4.30;99.90
52643;DHT22;38531;53.296;6.614;2024-01-30T01:34:24;3.00;99.90
52643;DHT22;38531;53.296;6.614;2024-01-30T01:36:50;2.80;99.90
52643;DHT22;38531;53.296;6.614;2024-01-30T01:39:16;2.90;99.90
52643;DHT22;38531;53.296;6.614;2024-01-30T01:41:42;4.20;99.90
52643;DHT22;38531;53.296;6.614;2024-01-30T01:44:08;3.00;99.90
52643;DHT22;38531;53.296;6.614;2024-01-30T01:46:34;2.40;99.90
52643;DHT22;38531;53.296;6.614;2024-01-30T01:49:04;2.80;99.90
52643;DHT22;38531;53.296;6.614;2024-01-30T01:51:31;2.70;99.90
52643;DHT22;38531;53.296;6.614;2024-01-30T01:54:01;3.00;99.90
52643;DHT22;38531;53.296;6.614;2024-01-30T01:56:27;4.00;99.90
52643;DHT22;38531;53.296;6.614;2024-01-30T01:58:55;3.90;99.90
52643;DHT22;38531;53.296;6.614;2024-01-30T02:01:21;1.90;99.90
52643;DHT22;38531;53.296;6.614;2024-01-30T02:03:47;2.40;99.90
52643;DHT22;38531;53.296;6.614;2024-01-30T02:06:16;4.00;99.90
52643;DHT22;38531;53.296;6.614;2024-01-30T02:08:41;2.40;99.90
52643;DHT22;38531;53.296;6.614;2024-01-30T02:11:07;2.90;99.90
52643;DHT22;38531;53.296;6.614;2024-01-30T02:13:33;2.20;99.90
52643;DHT22;38531;53.296;6.614;2024-01-30T02:16:00;4.00;99.90
52643;DHT22;38531;53.296;6.614;2024-01-30T02:18:26;2.50;99.90
52643;DHT22;38531;53.296;6.614;2024-01-30T02:20:54;3.80;99.90
52643;DHT22;38531;53.296;6.614;2024-01-30T02:23:23;3.90;99.90
52643;DHT22;38531;53.296;6.614;2024-01-30T02:25:49;3.70;99.90
52643;DHT22;38531;53.296;6.614;2024-01-30T02:28:15;3.80;99.90
52643;DHT22;38531;53.296;6.614;2024-01-30T02:30:43;4.00;99.90
52643;DHT22;38531;53.296;6.614;2024-01-30T02:33:09;4.30;99.90
52643;DHT22;38531;53.296;6.614;2024-01-30T02:35:34;2.70;99.90
52643;DHT22;38531;53.296;6.614;2024-01-30T02:38:00;4.00;99.90
52643;DHT22;38531;53.296;6.614;2024-01-30T02:40:26;4.10;99.90
52643;DHT22;38531;53.296;6.614;2024-01-30T02:42:52;4.30;99.90
52643;DHT22;38531;53.296;6.614;2024-01-30T02:45:17;2.90;99.90
52643;DHT22;38531;53.296;6.614;2024-01-30T02:47:43;3.10;99.90
52643;DHT22;38531;53.296;6.614;2024-01-30T02:50:09;4.90;99.90
52643;DHT22;38531;53.296;6.614;2024-01-30T02:52:35;4.40;99.90
52643;DHT22;38531;53.296;6.614;2024-01-30T02:55:01;3.90;99.90
52643;DHT22;38531;53.296;6.614;2024-01-30T02:57:28;4.60;99.90
52643;DHT22;38531;53.296;6.614;2024-01-30T02:59:54;4.90;99.90
52643;DHT22;38531;53.296;6.614;2024-01-30T03:02:20;4.40;99.90
52643;DHT22;38531;53.296;6.614;2024-01-30T03:04:45;3.10;99.90
52643;DHT22;38531;53.296;6.614;2024-01-30T03:07:11;4.20;99.90
52643;DHT22;38531;53.296;6.614;2024-01-30T03:09:37;3.60;99.90
52643;DHT22;38531;53.296;6.614;2024-01-30T03:12:03;3.00;99.90
52643;DHT22;38531;53.296;6.614;2024-01-30T03:14:32;3.10;99.90
52643;DHT22;38531;53.296;6.614;2024-01-30T03:16:58;4.70;99.90
52643;DHT22;38531;53.296;6.614;2024-01-30T03:19:24;4.80;99.90
52643;DHT22;38531;53.296;6.614;2024-01-30T03:21:50;2.00;99.90
52643;DHT22;38531;53.296;6.614;2024-01-30T03:24:16;3.00;99.90
52643;DHT22;38531;53.296;6.614;2024-01-30T03:26:43;3.10;99.90
52643;DHT22;38531;53.296;6.614;2024-01-30T03:29:08;3.00;99.90
52643;DHT22;38531;53.296;6.614;2024-01-30T03:31:34;3.80;99.90
52643;DHT22;38531;53.296;6.614;2024-01-30T03:34:01;2.50;99.90
52643;DHT22;38531;53.296;6.614;2024-01-30T03:36:27;5.00;99.90
52643;DHT22;38531;53.296;6.614;2024-01-30T03:38:52;4.80;99.90
52643;DHT22;38531;53.296;6.614;2024-01-30T03:41:18;3.40;99.90
52643;DHT22;38531;53.296;6.614;2024-01-30T03:43:44;4.30;99.90
52643;DHT22;38531;53.296;6.614;2024-01-30T03:46:12;3.50;99.90
52643;DHT22;38531;53.296;6.614;2024-01-30T03:48:37;2.60;99.90
52643;DHT22;38531;53.296;6.614;2024-01-30T03:51:03;2.80;99.90
52643;DHT22;38531;53.296;6.614;2024-01-30T03:53:29;3.00;99.90
52643;DHT22;38531;53.296;6.614;2024-01-30T03:55:55;3.80;99.90
52643;DHT22;38531;53.296;6.614;2024-01-30T03:58:21;3.60;99.90
52643;DHT22;38531;53.296;6.614;2024-01-30T04:00:47;4.20;99.90
52643;DHT22;38531;53.296;6.614;2024-01-30T04:03:14;4.70;99.90
52643;DHT22;38531;53.296;6.614;2024-01-30T04:05:40;4.70;99.90
52643;DHT22;38531;53.296;6.614;2024-01-30T04:08:06;3.40;99.90
52643;DHT22;38531;53.296;6.614;2024-01-30T04:10:31;3.50;99.90
52643;DHT22;38531;53.296;6.614;2024-01-30T04:12:57;4.50;99.90
52643;DHT22;38531;53.296;6.614;2024-01-30T04:15:23;5.30;99.90
52643;DHT22;38531;53.296;6.614;2024-01-30T04:17:48;5.60;99.90
52643;DHT22;38531;53.296;6.614;2024-01-30T04:20:17;3.70;99.90
52643;DHT22;38531;53.296;6.614;2024-01-30T04:22:46;5.10;99.90
52643;DHT22;38531;53.296;6.614;2024-01-30T04:25:13;4.70;99.90
52643;DHT22;38531;53.296;6.614;2024-01-30T04:27:38;4.00;99.90
52643;DHT22;38531;53.296;6.614;2024-01-30T04:30:04;4.60;99.90
52643;DHT22;38531;53.296;6.614;2024-01-30T04:32:31;4.00;99.90
52643;DHT22;38531;53.296;6.614;2024-01-30T04:34:57;4.80;99.90
52643;DHT22;38531;53.296;6.614;2024-01-30T04:37:24;4.00;99.90
52643;DHT22;38531;53.296;6.614;2024-01-30T04:39:50;5.40;99.90
52643;DHT22;38531;53.296;6.614;2024-01-30T04:42:16;3.60;99.90
52643;DHT22;38531;53.296;6.614;2024-01-30T04:44:42;5.40;99.90
52643;DHT22;38531;53.296;6.614;2024-01-30T04:47:08;5.60;99.90
52643;DHT22;38531;53.296;6.614;2024-01-30T04:49:36;6.20;99.90
52643;DHT22;38531;53.296;6.614;2024-01-30T04:52:02;5.00;99.90
52643;DHT22;38531;53.296;6.614;2024-01-30T04:54:28;4.40;99.90
52643;DHT22;38531;53.296;6.614;2024-01-30T04:56:53;4.50;99.90
52643;DHT22;38531;53.296;6.614;2024-01-30T04:59:19;4.50;99.90
52643;DHT22;38531;53.296;6.614;2024-01-30T05:01:44;5.90;99.90
52643;DHT22;38531;53.296;6.614;2024-01-30T05:04:10;5.90;99.90
52643;DHT22;38531;53.296;6.614;2024-01-30T05:06:36;6.30;99.90
52643;DHT22;38531;53.296;6.614;2024-01-30T05:09:02;5.60;99.90
52643;DHT22;38531;53.296;6.614;2024-01-30T05:11:31;4.90;99.90
52643;DHT22;38531;53.296;6.614;2024-01-30T05:14:02;5.80;99.90
52643;DHT22;38531;53.296;6.614;2024-01-30T05:16:27;6.00;99.90
52643;DHT22;38531;53.296;6.614;2024-01-30T05:18:53;6.10;99.90
52643;DHT22;38531;53.296;6.614;2024-01-30T05:21:19;5.90;99.90
52643;DHT22;38531;53.296;6.614;2024-01-30T05:23:44;5.60;99.90
52643;DHT22;38531;53.296;6.614;2024-01-30T05:26:10;4.60;99.90
52643;DHT22;38531;53.296;6.614;2024-01-30T05:28:35;5.70;99.90
52643;DHT22;38531;53.296;6.614;2024-01-30T05:31:01;6.00;99.90
52643;DHT22;38531;53.296;6.614;2024-01-30T05:33:28;6.10;99.90
52643;DHT22;38531;53.296;6.614;2024-01-30T05:35:53;5.40;99.90
52643;DHT22;38531;53.296;6.614;2024-01-30T05:38:20;5.40;99.90
52643;DHT22;38531;53.296;6.614;2024-01-30T05:40:46;5.40;99.90
52643;DHT22;38531;53.296;6.614;2024-01-30T05:43:11;6.40;99.90
52643;DHT22;38531;53.296;6.614;2024-01-30T05:45:37;6.20;99.90
52643;DHT22;38531;53.296;6.614;2024-01-30T05:48:03;7.00;99.90
52643;DHT22;38531;53.296;6.614;2024-01-30T05:50:29;5.50;99.90
52643;DHT22;38531;53.296;6.614;2024-01-30T05:52:55;5.90;99.90
52643;DHT22;38531;53.296;6.614;2024-01-30T05:55:21;6.30;99.90
52643;DHT22;38531;53.296;6.614;2024-01-30T05:57:46;5.30;99.90
52643;DHT22;38531;53.296;6.614;2024-01-30T06:00:12;5.30;99.90
52643;DHT22;38531;53.296;6.614;2024-01-30T06:02:38;5.50;99.90
52643;DHT22;38531;53.296;6.614;2024-01-30T06:05:04;6.90;99.90
52643;DHT22;38531;53.296;6.614;2024-01-30T06:07:30;5.60;99.90
52643;DHT22;38531;53.296;6.614;2024-01-30T06:09:55;5.40;99.90
52643;DHT22;38531;53.296;6.614;2024-01-30T06:12:21;6.00;99.90
52643;DHT22;38531;53.296;6.614;2024-01-30T06:14:47;5.10;99.90
52643;DHT22;38531;53.296;6.614;2024-01-30T06:17:12;7.40;99.90
52643;DHT22;38531;53.296;6.614;2024-01-30T06:19:39;6.80;99.90
52643;DHT22;38531;53.296;6.614;2024-01-30T06:22:05;6.80;99.90
52643;DHT22;38531;53.296;6.614;2024-01-30T06:24:30;5.90;99.90
52643;DHT22;38531;53.296;6.614;2024-01-30T06:26:56;6.90;99.90
52643;DHT22;38531;53.296;6.614;2024-01-30T06:29:22;7.10;99.90
52643;DHT22;38531;53.296;6.614;2024-01-30T06:31:50;5.80;99.90
52643;DHT22;38531;53.296;6.614;2024-01-30T06:34:15;7.40;99.90
52643;DHT22;38531;53.296;6.614;2024-01-30T06:36:41;7.30;99.90
52643;DHT22;38531;53.296;6.614;2024-01-30T06:39:07;7.10;99.90
52643;DHT22;38531;53.296;6.614;2024-01-30T06:41:33;6.20;99.90
52643;DHT22;38531;53.296;6.614;2024-01-30T06:43:59;6.30;99.90
52643;DHT22;38531;53.296;6.614;2024-01-30T06:46:24;7.80;99.90
52643;DHT22;38531;53.296;6.614;2024-01-30T06:48:50;6.10;99.90
52643;DHT22;38531;53.296;6.614;2024-01-30T06:51:16;7.30;99.90
52643;DHT22;38531;53.296;6.614;2024-01-30T06:53:41;7.40;99.90
52643;DHT22;38531;53.296;6.614;2024-01-30T06:56:08;6.40;99.90
52643;DHT22;38531;53.296;6.614;2024-01-30T06:58:33;6.30;99.90
52643;DHT22;38531;53.296;6.614;2024-01-30T07:00:59;5.50;99.90
52643;DHT22;38531;53.296;6.614;2024-01-30T07:03:25;7.00;99.90
52643;DHT22;38531;53.296;6.614;2024-01-30T07:05:51;7.00;99.90
52643;DHT22;38531;53.296;6.614;2024-01-30T07:08:17;6.40;99.90
52643;DHT22;38531;53.296;6.614;2024-01-30T07:10:43;7.80;99.90
52643;DHT22;38531;53.296;6.614;2024-01-30T07:13:10;7.50;99.90
52643;DHT22;38531;53.296;6.614;2024-01-30T07:15:36;6.80;99.90
52643;DHT22;38531;53.296;6.614;2024-01-30T07:18:02;7.40;99.90
52643;DHT22;38531;53.296;6.614;2024-01-30T07:20:28;6.40;99.90
52643;DHT22;38531;53.296;6.614;2024-01-30T07:22:56;6.90;99.90
52643;DHT22;38531;53.296;6.614;2024-01-30T07:25:22;6.40;99.90
52643;DHT22;38531;53.296;6.614;2024-01-30T07:27:52;6.70;99.90
52643;DHT22;38531;53.296;6.614;2024-01-30T07:30:18;6.20;99.90
52643;DHT22;38531;53.296;6.614;2024-01-30T07:32:44;6.40;99.90
52643;DHT22;38531;53.296;6.614;2024-01-30T07:35:10;7.30;99.90
52643;DHT22;38531;53.296;6.614;2024-01-30T07:45:27;6.50;99.90
52643;DHT22;38531;53.296;6.614;2024-01-30T07:47:58;6.40;99.90
52643;DHT22;38531;53.296;6.614;2024-01-30T07:50:23;6.50;99.90
52643;DHT22;38531;53.296;6.614;2024-01-30T07:52:49;6.40;99.90
52643;DHT22;38531;53.296;6.614;2024-01-30T07:55:16;6.70;99.90
52643;DHT22;38531;53.296;6.614;2024-01-30T07:57:42;6.70;99.90
52643;DHT22;38531;53.296;6.614;2024-01-30T08:00:08;7.70;99.90
52643;DHT22;38531;53.296;6.614;2024-01-30T08:02:34;6.70;99.90
52643;DHT22;38531;53.296;6.614;2024-01-30T08:05:00;6.80;99.90
52643;DHT22;38531;53.296;6.614;2024-01-30T08:07:25;8.20;99.90
52643;DHT22;38531;53.296;6.614;2024-01-30T08:09:51;8.50;99.90
52643;DHT22;38531;53.296;6.614;2024-01-30T08:12:17;7.10;99.90
52643;DHT22;38531;53.296;6.614;2024-01-30T08:14:43;7.40;99.90
52643;DHT22;38531;53.296;6.614;2024-01-30T08:17:08;6.90;99.90
52643;DHT22;38531;53.296;6.614;2024-01-30T08:19:34;7.80;99.90
52643;DHT22;38531;53.296;6.614;2024-01-30T08:22:00;6.90;99.90
52643;DHT22;38531;53.296;6.614;2024-01-30T08:24:25;6.90;99.90
52643;DHT22;38531;53.296;6.614;2024-01-30T08:26:51;8.20;99.90
52643;DHT22;38531;53.296;6.614;2024-01-30T08:29:17;8.50;99.90
52643;DHT22;38531;53.296;6.614;2024-01-30T08:31:42;6.10;99.90
52643;DHT22;38531;53.296;6.614;2024-01-30T08:34:08;8.00;99.90
52643;DHT22;38531;53.296;6.614;2024-01-30T08:36:34;6.50;99.90
52643;DHT22;38531;53.296;6.614;2024-01-30T08:38:59;7.80;99.90
52643;DHT22;38531;53.296;6.614;2024-01-30T08:41:25;8.10;99.90
52643;DHT22;38531;53.296;6.614;2024-01-30T08:43:52;7.10;99.90
52643;DHT22;38531;53.296;6.614;2024-01-30T08:46:18;7.20;99.90
52643;DHT22;38531;53.296;6.614;2024-01-30T08:48:46;7.10;99.90
52643;DHT22;38531;53.296;6.614;2024-01-30T08:51:12;7.40;99.90
52643;DHT22;38531;53.296;6.614;2024-01-30T08:53:39;8.80;99.90
52643;DHT22;38531;53.296;6.614;2024-01-30T08:56:06;7.50;99.90
52643;DHT22;38531;53.296;6.614;2024-01-30T08:58:31;7.50;99.90
52643;DHT22;38531;53.296;6.614;2024-01-30T09:00:58;7.40;99.90
52643;DHT22;38531;53.296;6.614;2024-01-30T09:03:24;7.70;99.90
52643;DHT22;38531;53.296;6.614;2024-01-30T09:05:50;7.70;99.90
52643;DHT22;38531;53.296;6.614;2024-01-30T09:08:15;8.30;99.90
52643;DHT22;38531;53.296;6.614;2024-01-30T09:10:41;7.70;99.90
52643;DHT22;38531;53.296;6.614;2024-01-30T09:13:07;7.80;99.90
52643;DHT22;38531;53.296;6.614;2024-01-30T09:15:33;7.80;99.90
52643;DHT22;38531;53.296;6.614;2024-01-30T09:17:58;7.90;99.90
52643;DHT22;38531;53.296;6.614;2024-01-30T09:20:24;7.70;99.90
52643;DHT22;38531;53.296;6.614;2024-01-30T09:22:50;9.20;99.90
52643;DHT22;38531;53.296;6.614;2024-01-30T09:25:15;7.90;99.90
52643;DHT22;38531;53.296;6.614;2024-01-30T09:27:41;8.40;99.90
52643;DHT22;38531;53.296;6.614;2024-01-30T09:30:07;8.30;99.90
52643;DHT22;38531;53.296;6.614;2024-01-30T09:32:33;8.20;99.90
52643;DHT22;38531;53.296;6.614;2024-01-30T09:34:59;8.50;99.90
52643;DHT22;38531;53.296;6.614;2024-01-30T09:37:24;8.90;99.90
52643;DHT22;38531;53.296;6.614;2024-01-30T09:39:50;8.30;99.90
52643;DHT22;38531;53.296;6.614;2024-01-30T09:42:26;9.40;99.90
52643;DHT22;38531;53.296;6.614;2024-01-30T09:44:53;9.10;99.90
52643;DHT22;38531;53.296;6.614;2024-01-30T09:47:19;8.70;99.90
52643;DHT22;38531;53.296;6.614;2024-01-30T09:49:45;8.80;99.90
52643;DHT22;38531;53.296;6.614;2024-01-30T09:52:12;8.80;99.90
52643;DHT22;38531;53.296;6.614;2024-01-30T09:54:38;8.90;99.90
52643;DHT22;38531;53.296;6.614;2024-01-30T09:57:04;9.40;99.90
52643;DHT22;38531;53.296;6.614;2024-01-30T09:59:31;9.00;99.90
52643;DHT22;38531;53.296;6.614;2024-01-30T10:01:57;9.40;99.90
52643;DHT22;38531;53.296;6.614;2024-01-30T10:04:23;9.30;99.90
52643;DHT22;38531;53.296;6.614;2024-01-30T10:06:50;9.00;99.90
52643;DHT22;38531;53.296;6.614;2024-01-30T10:09:16;9.10;99.90
52643;DHT22;38531;53.296;6.614;2024-01-30T10:11:41;9.60;99.90
52643;DHT22;38531;53.296;6.614;2024-01-30T10:14:07;9.10;99.90
52643;DHT22;38531;53.296;6.614;2024-01-30T10:16:34;9.50;99.90
52643;DHT22;38531;53.296;6.614;2024-01-30T10:19:00;9.60;99.90
52643;DHT22;38531;53.296;6.614;2024-01-30T10:21:25;10.40;99.90
52643;DHT22;38531;53.296;6.614;2024-01-30T10:23:51;9.30;99.90
52643;DHT22;38531;53.296;6.614;2024-01-30T10:26:17;9.40;99.90
52643;DHT22;38531;53.296;6.614;2024-01-30T10:28:43;9.50;99.90
52643;DHT22;38531;53.296;6.614;2024-01-30T10:31:09;10.00;99.90
52643;DHT22;38531;53.296;6.614;2024-01-30T10:33:34;9.50;99.90
52643;DHT22;38531;53.296;6.614;2024-01-30T10:36:02;9.60;99.90
52643;DHT22;38531;53.296;6.614;2024-01-30T10:38:32;10.00;99.90
52643;DHT22;38531;53.296;6.614;2024-01-30T10:40:59;9.90;99.90
52643;DHT22;38531;53.296;6.614;2024-01-30T10:43:31;10.20;99.90
52643;DHT22;38531;53.296;6.614;2024-01-30T10:46:10;9.70;99.90
52643;DHT22;38531;53.296;6.614;2024-01-30T10:48:42;9.70;99.90
52643;DHT22;38531;53.296;6.614;2024-01-30T10:51:09;9.60;99.90
52643;DHT22;38531;53.296;6.614;2024-01-30T10:53:36;9.80;99.90
52643;DHT22;38531;53.296;6.614;2024-01-30T10:56:03;9.70;99.90
52643;DHT22;38531;53.296;6.614;2024-01-30T10:58:30;9.70;99.90
52643;DHT22;38531;53.296;6.614;2024-01-30T11:00:56;10.10;99.90
52643;DHT22;38531;53.296;6.614;2024-01-30T11:03:22;10.40;99.90
52643;DHT22;38531;53.296;6.614;2024-01-30T11:05:52;9.60;99.90
52643;DHT22;38531;53.296;6.614;2024-01-30T11:08:24;9.80;99.90
52643;DHT22;38531;53.296;6.614;2024-01-30T11:10:56;10.10;99.90
52643;DHT22;38531;53.296;6.614;2024-01-30T11:13:22;9.90;99.90
52643;DHT22;38531;53.296;6.614;2024-01-30T11:15:51;9.80;99.90
52643;DHT22;38531;53.296;6.614;2024-01-30T11:18:24;9.80;99.90
52643;DHT22;38531;53.296;6.614;2024-01-30T11:20:50;10.40;99.90
52643;DHT22;38531;53.296;6.614;2024-01-30T11:23:16;10.30;99.90
52643;DHT22;38531;53.296;6.614;2024-01-30T11:25:43;9.90;99.90
52643;DHT22;38531;53.296;6.614;2024-01-30T11:28:14;10.60;99.90
52643;DHT22;38531;53.296;6.614;2024-01-30T11:30:40;10.30;99.90
52643;DHT22;38531;53.296;6.614;2024-01-30T11:33:13;10.40;99.90
52643;DHT22;38531;53.296;6.614;2024-01-30T11:35:43;10.00;99.90
52643;DHT22;38531;53.296;6.614;2024-01-30T11:38:11;10.00;99.90
52643;DHT22;38531;53.296;6.614;2024-01-30T11:40:38;10.00;99.90
52643;DHT22;38531;53.296;6.614;2024-01-30T11:43:05;10.50;99.90
52643;DHT22;38531;53.296;6.614;2024-01-30T11:45:31;9.90;99.90
52643;DHT22;38531;53.296;6.614;2024-01-30T11:47:59;10.10;99.90
52643;DHT22;38531;53.296;6.614;2024-01-30T11:50:33;9.80;99.90
52643;DHT22;38531;53.296;6.614;2024-01-30T11:52:59;10.00;99.90
52643;DHT22;38531;53.296;6.614;2024-01-30T11:55:25;10.10;99.90
52643;DHT22;38531;53.296;6.614;2024-01-30T11:57:54;9.70;99.90
52643;DHT22;38531;53.296;6.614;2024-01-30T12:00:20;9.80;99.90
52643;DHT22;38531;53.296;6.614;2024-01-30T12:02:54;9.80;99.90
52643;DHT22;38531;53.296;6.614;2024-01-30T12:05:26;10.20;99.90
52643;DHT22;38531;53.296;6.614;2024-01-30T12:07:53;9.80;99.90
52643;DHT22;38531;53.296;6.614;2024-01-30T12:10:19;9.80;99.90
52643;DHT22;38531;53.296;6.614;2024-01-30T12:12:47;9.70;99.90
52643;DHT22;38531;53.296;6.614;2024-01-30T12:15:13;9.70;99.90
52643;DHT22;38531;53.296;6.614;2024-01-30T12:17:40;9.60;99.90
52643;DHT22;38531;53.296;6.614;2024-01-30T12:20:10;9.60;99.90
52643;DHT22;38531;53.296;6.614;2024-01-30T12:22:47;9.60;99.90
52643;DHT22;38531;53.296;6.614;2024-01-30T12:25:18;9.60;99.90
52643;DHT22;38531;53.296;6.614;2024-01-30T12:27:45;9.60;99.90
52643;DHT22;38531;53.296;6.614;2024-01-30T12:30:13;9.60;99.90
52643;DHT22;38531;53.296;6.614;2024-01-30T12:32:41;9.60;99.90
52643;DHT22;38531;53.296;6.614;2024-01-30T12:35:15;9.90;99.90
52643;DHT22;38531;53.296;6.614;2024-01-30T12:37:43;9.60;99.90
52643;DHT22;38531;53.296;6.614;2024-01-30T12:40:10;9.80;99.90
52643;DHT22;38531;53.296;6.614;2024-01-30T12:42:36;9.60;99.90
52643;DHT22;38531;53.296;6.614;2024-01-30T12:45:03;9.60;99.90
52643;DHT22;38531;53.296;6.614;2024-01-30T12:47:30;9.60;99.90
52643;DHT22;38531;53.296;6.614;2024-01-30T12:49:56;9.60;99.90
52643;DHT22;38531;53.296;6.614;2024-01-30T12:52:22;9.60;99.90
52643;DHT22;38531;53.296;6.614;2024-01-30T12:54:49;9.50;99.90
52643;DHT22;38531;53.296;6.614;2024-01-30T12:57:15;9.50;99.90
52643;DHT22;38531;53.296;6.614;2024-01-30T12:59:41;9.50;99.90
52643;DHT22;38531;53.296;6.614;2024-01-30T13:02:07;9.60;99.90
52643;DHT22;38531;53.296;6.614;2024-01-30T13:04:33;9.90;99.90
52643;DHT22;38531;53.296;6.614;2024-01-30T13:06:59;9.70;99.90
52643;DHT22;38531;53.296;6.614;2024-01-30T13:09:26;9.70;99.90
52643;DHT22;38531;53.296;6.614;2024-01-30T13:11:52;9.60;99.90
52643;DHT22;38531;53.296;6.614;2024-01-30T13:14:18;10.20;99.90
52643;DHT22;38531;53.296;6.614;2024-01-30T13:16:44;9.70;99.90
52643;DHT22;38531;53.296;6.614;2024-01-30T13:19:10;9.70;99.90
52643;DHT22;38531;53.296;6.614;2024-01-30T13:21:36;10.10;99.90
52643;DHT22;38531;53.296;6.614;2024-01-30T13:24:02;9.90;99.90
52643;DHT22;38531;53.296;6.614;2024-01-30T13:26:27;9.80;99.90
52643;DHT22;38531;53.296;6.614;2024-01-30T13:28:53;9.80;99.90
52643;DHT22;38531;53.296;6.614;2024-01-30T13:31:19;9.80;99.90
52643;DHT22;38531;53.296;6.614;2024-01-30T13:33:45;9.70;99.90
52643;DHT22;38531;53.296;6.614;2024-01-30T13:36:11;10.00;99.90
52643;DHT22;38531;53.296;6.614;2024-01-30T13:38:38;10.00;99.90
52643;DHT22;38531;53.296;6.614;2024-01-30T13:41:04;9.50;99.90
52643;DHT22;38531;53.296;6.614;2024-01-30T13:43:30;9.60;99.90
52643;DHT22;38531;53.296;6.614;2024-01-30T13:45:56;9.60;99.90
52643;DHT22;38531;53.296;6.614;2024-01-30T13:48:22;9.70;99.90
52643;DHT22;38531;53.296;6.614;2024-01-30T13:50:48;9.40;99.90
52643;DHT22;38531;53.296;6.614;2024-01-30T13:53:13;9.40;99.90
52643;DHT22;38531;53.296;6.614;2024-01-30T13:55:39;10.10;99.90
52643;DHT22;38531;53.296;6.614;2024-01-30T13:58:05;9.40;99.90
52643;DHT22;38531;53.296;6.614;2024-01-30T14:00:32;9.40;99.90
52643;DHT22;38531;53.296;6.614;2024-01-30T14:02:59;9.40;99.90
52643;DHT22;38531;53.296;6.614;2024-01-30T14:05:25;9.40;99.90
52643;DHT22;38531;53.296;6.614;2024-01-30T14:07:53;9.80;99.90
52643;DHT22;38531;53.296;6.614;2024-01-30T14:10:19;9.50;99.90
52643;DHT22;38531;53.296;6.614;2024-01-30T14:12:45;9.30;99.90
52643;DHT22;38531;53.296;6.614;2024-01-30T14:15:11;9.40;99.90
52643;DHT22;38531;53.296;6.614;2024-01-30T14:17:38;9.70;99.90
52643;DHT22;38531;53.296;6.614;2024-01-30T14:20:04;9.40;99.90
52643;DHT22;38531;53.296;6.614;2024-01-30T14:22:31;9.40;99.90
52643;DHT22;38531;53.296;6.614;2024-01-30T14:24:56;9.40;99.90
52643;DHT22;38531;53.296;6.614;2024-01-30T14:27:22;9.30;99.90
52643;DHT22;38531;53.296;6.614;2024-01-30T14:29:48;9.20;99.90
52643;DHT22;38531;53.296;6.614;2024-01-30T14:32:14;9.30;99.90
52643;DHT22;38531;53.296;6.614;2024-01-30T14:34:40;9.20;99.90
52643;DHT22;38531;53.296;6.614;2024-01-30T14:37:07;9.20;99.90
52643;DHT22;38531;53.296;6.614;2024-01-30T14:39:33;9.20;99.90
52643;DHT22;38531;53.296;6.614;2024-01-30T14:41:59;9.10;99.90
52643;DHT22;38531;53.296;6.614;2024-01-30T14:44:25;9.10;99.90
52643;DHT22;38531;53.296;6.614;2024-01-30T14:46:51;9.00;99.90
52643;DHT22;38531;53.296;6.614;2024-01-30T14:49:17;9.00;99.90
52643;DHT22;38531;53.296;6.614;2024-01-30T14:51:43;9.00;99.90
52643;DHT22;38531;53.296;6.614;2024-01-30T14:54:08;8.80;99.90
52643;DHT22;38531;53.296;6.614;2024-01-30T14:56:34;9.70;99.90
52643;DHT22;38531;53.296;6.614;2024-01-30T14:59:00;9.20;99.90
52643;DHT22;38531;53.296;6.614;2024-01-30T15:01:26;9.10;99.90
52643;DHT22;38531;53.296;6.614;2024-01-30T15:03:52;8.50;99.90
52643;DHT22;38531;53.296;6.614;2024-01-30T15:06:18;8.60;99.90
52643;DHT22;38531;53.296;6.614;2024-01-30T15:08:44;8.60;99.90
52643;DHT22;38531;53.296;6.614;2024-01-30T15:11:10;9.20;99.90
52643;DHT22;38531;53.296;6.614;2024-01-30T15:13:36;7.40;99.90
52643;DHT22;38531;53.296;6.614;2024-01-30T15:16:03;8.50;99.90
52643;DHT22;38531;53.296;6.614;2024-01-30T15:18:30;8.50;99.90
52643;DHT22;38531;53.296;6.614;2024-01-30T15:20:56;8.40;99.90
52643;DHT22;38531;53.296;6.614;2024-01-30T15:23:22;8.50;99.90
52643;DHT22;38531;53.296;6.614;2024-01-30T15:25:47;8.40;99.90
52643;DHT22;38531;53.296;6.614;2024-01-30T15:28:14;9.60;99.90
52643;DHT22;38531;53.296;6.614;2024-01-30T15:30:40;8.40;99.90
52643;DHT22;38531;53.296;6.614;2024-01-30T15:33:10;8.30;99.90
52643;DHT22;38531;53.296;6.614;2024-01-30T15:35:35;8.40;99.90
52643;DHT22;38531;53.296;6.614;2024-01-30T15:38:04;8.40;99.90
52643;DHT22;38531;53.296;6.614;2024-01-30T15:40:30;8.30;99.90
52643;DHT22;38531;53.296;6.614;2024-01-30T15:42:55;9.40;99.90
52643;DHT22;38531;53.296;6.614;2024-01-30T15:45:21;8.30;99.90
52643;DHT22;38531;53.296;6.614;2024-01-30T15:47:47;8.30;99.90